Time,TemperatureF,DewpointF,PressureIn,WindDirection,WindDirectionDegrees,WindSpeedMPH,WindSpeedGustMPH,Humidity,HourlyPrecipIn,Conditions,Clouds,dailyrainin,SoftwareType,DateUTC
2013-09-15 00:07:00,51.4,48.0,30.04,ESE,114,0.0,0.0,87,0.00,,,0.00,weatherlink.com 1.10,2013-09-15 04:07:00,
2013-09-15 00:22:00,51.8,47.0,30.05,ESE,114,0.0,0.0,84,0.00,,,0.00,weatherlink.com 1.10,2013-09-15 04:22:00,
2013-09-15 00:37:00,51.2,47.0,30.04,ESE,114,0.0,0.0,85,0.00,,,0.00,weatherlink.com 1.10,2013-09-15 04:37:00,
2013-09-15 00:52:00,50.5,46.0,30.05,ESE,114,0.0,0.0,83,0.00,,,0.00,weatherlink.com 1.10,2013-09-15 04:52:00,
2013-09-15 01:07:00,50.9,46.0,30.04,ESE,114,0.0,0.0,83,0.00,,,0.00,weatherlink.com 1.10,2013-09-15 05:07:00,
2013-09-15 01:22:00,50.5,45.0,30.04,ESE,114,0.0,0.0,82,0.00,,,0.00,weatherlink.com 1.10,2013-09-15 05:22:00,
2013-09-15 01:37:00,50.9,46.0,30.04,ESE,114,0.0,0.0,82,0.00,,,0.00,weatherlink.com 1.10,2013-09-15 05:37:00,
2013-09-15 01:52:00,50.5,45.0,30.04,ESE,114,0.0,0.0,82,0.00,,,0.00,weatherlink.com 1.10,2013-09-15 05:52:00,
2013-09-15 02:07:00,50.4,45.0,30.04,ESE,115,0.0,0.0,82,0.00,,,0.00,weatherlink.com 1.10,2013-09-15 06:07:00,
2013-09-15 02:22:00,50.4,45.0,30.04,ESE,114,0.0,0.0,82,0.00,,,0.00,weatherlink.com 1.10,2013-09-15 06:22:00,
2013-09-15 02:37:00,50.3,45.0,30.04,ESE,115,0.0,0.0,82,0.00,,,0.00,weatherlink.com 1.10,2013-09-15 06:37:00,
2013-09-15 02:52:00,50.7,45.0,30.04,ESE,115,0.0,0.0,82,0.00,,,0.00,weatherlink.com 1.10,2013-09-15 06:52:00,
2013-09-15 03:07:00,51.2,45.0,30.05,ESE,114,0.0,0.0,80,0.00,,,0.00,weatherlink.com 1.10,2013-09-15 07:07:00,
2013-09-15 03:22:00,51.4,45.0,30.05,ESE,114,0.0,0.0,79,0.00,,,0.00,weatherlink.com 1.10,2013-09-15 07:22:00,
2013-09-15 03:37:00,51.4,45.0,30.05,ESE,114,0.0,0.0,78,0.00,,,0.00,weatherlink.com 1.10,2013-09-15 07:37:00,
2013-09-15 03:52:00,51.0,45.0,30.05,ESE,105,1.0,1.0,79,0.00,,,0.00,weatherlink.com 1.10,2013-09-15 07:52:00,
2013-09-15 04:07:00,50.8,45.0,30.05,ESE,106,0.0,0.0,80,0.00,,,0.00,weatherlink.com 1.10,2013-09-15 08:07:00,
2013-09-15 04:22:00,50.1,45.0,30.05,ESE,105,0.0,1.0,82,0.00,,,0.00,weatherlink.com 1.10,2013-09-15 08:22:00,
2013-09-15 04:37:00,49.4,45.0,30.05,ESE,105,0.0,0.0,85,0.00,,,0.00,weatherlink.com 1.10,2013-09-15 08:37:00,
2013-09-15 04:52:00,49.2,45.0,30.05,ESE,106,0.0,0.0,85,0.00,,,0.00,weatherlink.com 1.10,2013-09-15 08:52:00,
2013-09-15 05:07:00,48.8,44.0,30.05,ESE,106,0.0,0.0,84,0.00,,,0.00,weatherlink.com 1.10,2013-09-15 09:07:00,
2013-09-15 05:22:00,49.0,45.0,30.04,ESE,106,0.0,0.0,86,0.00,,,0.00,weatherlink.com 1.10,2013-09-15 09:22:00,
2013-09-15 05:37:00,48.6,45.0,30.04,ESE,105,0.0,0.0,87,0.00,,,0.00,weatherlink.com 1.10,2013-09-15 09:37:00,
2013-09-15 05:52:00,49.1,45.0,30.04,ESE,106,0.0,0.0,86,0.00,,,0.00,weatherlink.com 1.10,2013-09-15 09:52:00,
2013-09-15 06:08:00,49.3,45.0,30.05,ESE,106,0.0,0.0,84,0.00,,,0.00,weatherlink.com 1.10,2013-09-15 10:08:00,
2013-09-15 06:23:00,48.9,45.0,30.05,ESE,106,0.0,0.0,86,0.00,,,0.00,weatherlink.com 1.10,2013-09-15 10:23:00,
2013-09-15 06:38:00,48.4,45.0,30.05,ESE,106,0.0,0.0,89,0.00,,,0.00,weatherlink.com 1.10,2013-09-15 10:38:00,
2013-09-15 06:53:00,47.9,45.0,30.05,ESE,106,0.0,0.0,89,0.00,,,0.00,weatherlink.com 1.10,2013-09-15 10:53:00,
2013-09-15 07:08:00,47.8,45.0,30.05,ESE,106,0.0,0.0,90,0.00,,,0.00,weatherlink.com 1.10,2013-09-15 11:08:00,
2013-09-15 07:23:00,47.2,45.0,30.05,ESE,105,0.0,0.0,91,0.00,,,0.00,weatherlink.com 1.10,2013-09-15 11:23:00,
2013-09-15 07:38:00,46.7,45.0,30.06,ESE,105,0.0,0.0,92,0.00,,,0.00,weatherlink.com 1.10,2013-09-15 11:38:00,
2013-09-15 07:53:00,47.0,45.0,30.06,ESE,105,0.0,0.0,92,0.00,,,0.00,weatherlink.com 1.10,2013-09-15 11:53:00,
2013-09-15 08:08:00,49.2,47.0,30.07,ESE,105,0.0,0.0,93,0.00,,,0.00,weatherlink.com 1.10,2013-09-15 12:08:00,
2013-09-15 08:23:00,52.6,49.0,30.07,ESE,105,0.0,0.0,86,0.00,,,0.00,weatherlink.com 1.10,2013-09-15 12:23:00,
2013-09-15 08:39:00,55.5,49.0,30.08,ESE,112,0.0,1.0,79,0.00,,,0.00,weatherlink.com 1.10,2013-09-15 12:39:00,
2013-09-15 08:53:00,56.9,50.0,30.08,ESE,105,0.0,1.0,77,0.00,,,0.00,weatherlink.com 1.10,2013-09-15 12:53:00,
2013-09-15 09:08:00,57.9,50.0,30.07,SE,125,1.0,3.0,76,0.00,,,0.00,weatherlink.com 1.10,2013-09-15 13:08:00,
2013-09-15 09:23:00,59.0,51.0,30.07,East,89,1.0,3.0,76,0.00,,,0.00,weatherlink.com 1.10,2013-09-15 13:23:00,
2013-09-15 09:38:00,60.3,52.0,30.07,ESE,114,0.0,2.0,75,0.00,,,0.00,weatherlink.com 1.10,2013-09-15 13:38:00,
2013-09-15 09:53:00,61.8,53.0,30.08,South,174,0.0,4.0,72,0.00,,,0.00,weatherlink.com 1.10,2013-09-15 13:53:00,
2013-09-15 10:08:00,63.0,52.0,30.08,SSE,150,2.0,5.0,68,0.00,,,0.00,weatherlink.com 1.10,2013-09-15 14:08:00,
2013-09-15 10:23:00,64.2,53.0,30.09,ESE,114,3.0,4.0,67,0.00,,,0.00,weatherlink.com 1.10,2013-09-15 14:23:00,
2013-09-15 10:38:00,64.4,53.0,30.09,WNW,285,1.0,4.0,66,0.00,,,0.00,weatherlink.com 1.10,2013-09-15 14:38:00,
2013-09-15 10:53:00,65.3,54.0,30.09,ESE,111,4.0,4.0,66,0.00,,,0.00,weatherlink.com 1.10,2013-09-15 14:53:00,
2013-09-15 11:08:00,67.0,54.0,30.08,SSW,194,0.0,3.0,64,0.00,,,0.00,weatherlink.com 1.10,2013-09-15 15:08:00,
2013-09-15 11:23:00,67.6,54.0,30.08,SW,231,1.0,4.0,62,0.00,,,0.00,weatherlink.com 1.10,2013-09-15 15:23:00,
2013-09-15 11:38:00,69.8,55.0,30.07,NW,324,2.0,4.0,59,0.00,,,0.00,weatherlink.com 1.10,2013-09-15 15:38:00,
2013-09-15 11:55:00,69.6,54.0,30.07,SE,138,0.0,4.0,58,0.00,,,0.00,weatherlink.com 1.10,2013-09-15 15:55:00,
2013-09-15 12:09:00,70.6,55.0,30.07,ESE,115,4.0,4.0,59,0.00,,,0.00,weatherlink.com 1.10,2013-09-15 16:09:00,
2013-09-15 12:24:00,71.1,55.0,30.06,NE,46,2.0,10.0,57,0.00,,,0.00,weatherlink.com 1.10,2013-09-15 16:24:00,
2013-09-15 12:54:00,72.5,53.0,30.05,East,101,2.0,4.0,51,0.00,,,0.00,weatherlink.com 1.10,2013-09-15 16:54:00,
2013-09-15 13:09:00,72.7,54.0,30.04,ESE,120,2.0,9.0,52,0.00,,,0.00,weatherlink.com 1.10,2013-09-15 17:09:00,
2013-09-15 13:24:00,73.2,55.0,30.04,SSE,148,3.0,8.0,54,0.00,,,0.00,weatherlink.com 1.10,2013-09-15 17:24:00,
2013-09-15 13:39:00,73.5,55.0,30.03,East,79,3.0,7.0,52,0.00,,,0.00,weatherlink.com 1.10,2013-09-15 17:39:00,
2013-09-15 13:54:00,73.5,55.0,30.03,NE,54,4.0,6.0,52,0.00,,,0.00,weatherlink.com 1.10,2013-09-15 17:54:00,
2013-09-15 14:09:00,74.2,54.0,30.02,SW,228,1.0,7.0,49,0.00,,,0.00,weatherlink.com 1.10,2013-09-15 18:09:00,
2013-09-15 14:24:00,75.0,53.0,30.02,NE,48,3.0,5.0,46,0.00,,,0.00,weatherlink.com 1.10,2013-09-15 18:24:00,
2013-09-15 14:39:00,75.3,54.0,30.02,NNE,22,1.0,2.0,47,0.00,,,0.00,weatherlink.com 1.10,2013-09-15 18:39:00,
2013-09-15 14:54:00,75.0,54.0,30.01,East,86,1.0,7.0,49,0.00,,,0.00,weatherlink.com 1.10,2013-09-15 18:54:00,
2013-09-15 15:09:00,75.5,53.0,30.00,SE,131,4.0,10.0,46,0.00,,,0.00,weatherlink.com 1.10,2013-09-15 19:09:00,
2013-09-15 15:24:00,75.3,53.0,30.01,East,90,2.0,6.0,46,0.00,,,0.00,weatherlink.com 1.10,2013-09-15 19:24:00,
2013-09-15 15:39:00,76.1,52.0,30.00,NE,36,3.0,7.0,43,0.00,,,0.00,weatherlink.com 1.10,2013-09-15 19:39:00,
2013-09-15 15:54:00,75.6,51.0,29.99,North,10,1.0,6.0,42,0.00,,,0.00,weatherlink.com 1.10,2013-09-15 19:54:00,
2013-09-15 16:09:00,76.4,52.0,29.98,SSE,156,0.0,7.0,43,0.00,,,0.00,weatherlink.com 1.10,2013-09-15 20:09:00,
2013-09-15 16:24:00,76.3,52.0,29.98,NE,51,1.0,7.0,43,0.00,,,0.00,weatherlink.com 1.10,2013-09-15 20:24:00,
2013-09-15 16:39:00,77.0,52.0,29.98,NW,305,4.0,4.0,42,0.00,,,0.00,weatherlink.com 1.10,2013-09-15 20:39:00,
2013-09-15 16:54:00,76.1,53.0,29.98,East,86,1.0,6.0,44,0.00,,,0.00,weatherlink.com 1.10,2013-09-15 20:54:00,
2013-09-15 17:09:00,75.6,54.0,29.98,East,87,1.0,3.0,47,0.00,,,0.00,weatherlink.com 1.10,2013-09-15 21:09:00,
2013-09-15 17:24:00,75.3,54.0,29.98,ESE,114,2.0,5.0,47,0.00,,,0.00,weatherlink.com 1.10,2013-09-15 21:24:00,
2013-09-15 17:39:00,74.9,54.0,29.98,ESE,108,0.0,3.0,49,0.00,,,0.00,weatherlink.com 1.10,2013-09-15 21:39:00,
2013-09-15 17:54:00,73.9,53.0,29.98,East,101,0.0,4.0,49,0.00,,,0.00,weatherlink.com 1.10,2013-09-15 21:54:00,
2013-09-15 18:09:00,73.1,54.0,29.98,NNE,23,0.0,3.0,52,0.00,,,0.00,weatherlink.com 1.10,2013-09-15 22:09:00,
2013-09-15 18:24:00,73.2,55.0,29.98,ENE,75,3.0,3.0,53,0.00,,,0.00,weatherlink.com 1.10,2013-09-15 22:24:00,
2013-09-15 18:39:00,73.0,54.0,29.98,SW,233,0.0,5.0,52,0.00,,,0.00,weatherlink.com 1.10,2013-09-15 22:39:00,
2013-09-15 18:54:00,72.3,55.0,29.98,East,87,0.0,3.0,54,0.00,,,0.00,weatherlink.com 1.10,2013-09-15 22:54:00,
2013-09-15 19:09:00,71.7,55.0,29.98,SE,134,0.0,1.0,55,0.00,,,0.00,weatherlink.com 1.10,2013-09-15 23:09:00,
2013-09-15 19:24:00,70.6,55.0,29.98,SE,136,0.0,1.0,59,0.00,,,0.00,weatherlink.com 1.10,2013-09-15 23:24:00,
2013-09-15 19:40:00,69.3,57.0,29.97,SE,131,0.0,1.0,64,0.00,,,0.00,weatherlink.com 1.10,2013-09-15 23:40:00,
2013-09-15 19:55:00,68.0,56.0,29.98,NNE,18,1.0,1.0,65,0.00,,,0.00,weatherlink.com 1.10,2013-09-15 23:55:00,
2013-09-15 20:10:00,67.0,56.0,29.97,NNE,17,0.0,0.0,67,0.00,,,0.00,weatherlink.com 1.10,2013-09-16 00:10:00,
2013-09-15 20:25:00,66.8,56.0,29.97,NE,47,0.0,1.0,68,0.00,,,0.00,weatherlink.com 1.10,2013-09-16 00:25:00,
2013-09-15 20:40:00,67.2,56.0,29.98,ENE,72,0.0,1.0,67,0.00,,,0.00,weatherlink.com 1.10,2013-09-16 00:40:00,
2013-09-15 20:55:00,67.4,56.0,29.98,ENE,72,0.0,0.0,68,0.00,,,0.00,weatherlink.com 1.10,2013-09-16 00:55:00,
2013-09-15 21:10:00,66.9,56.0,29.98,ENE,72,0.0,0.0,69,0.00,,,0.00,weatherlink.com 1.10,2013-09-16 01:10:00,
2013-09-15 21:25:00,66.2,57.0,29.99,ENE,72,0.0,0.0,71,0.00,,,0.00,weatherlink.com 1.10,2013-09-16 01:25:00,
2013-09-15 21:40:00,66.0,57.0,29.99,ENE,72,0.0,0.0,72,0.00,,,0.00,weatherlink.com 1.10,2013-09-16 01:40:00,
2013-09-15 21:55:00,66.4,57.0,29.99,ENE,72,0.0,0.0,72,0.00,,,0.00,weatherlink.com 1.10,2013-09-16 01:55:00,
2013-09-15 22:10:00,66.7,57.0,29.99,ENE,75,0.0,0.0,70,0.00,,,0.00,weatherlink.com 1.10,2013-09-16 02:10:00,
2013-09-15 22:25:00,67.0,58.0,30.00,ENE,75,0.0,0.0,72,0.00,,,0.00,weatherlink.com 1.10,2013-09-16 02:25:00,
2013-09-15 22:40:00,66.6,58.0,30.00,NNE,18,0.0,0.0,74,0.00,,,0.00,weatherlink.com 1.10,2013-09-16 02:40:00,
2013-09-15 22:55:00,66.7,57.0,30.00,NNE,20,0.0,0.0,72,0.00,,,0.00,weatherlink.com 1.10,2013-09-16 02:55:00,
2013-09-15 23:10:00,66.6,58.0,30.00,NNE,20,0.0,0.0,73,0.00,,,0.00,weatherlink.com 1.10,2013-09-16 03:10:00,
2013-09-15 23:25:00,66.4,58.0,30.00,NNE,20,0.0,0.0,73,0.00,,,0.00,weatherlink.com 1.10,2013-09-16 03:25:00,
2013-09-15 23:40:00,66.4,58.0,30.00,NNW,346,0.0,0.0,73,0.00,,,0.00,weatherlink.com 1.10,2013-09-16 03:40:00,
2013-09-15 23:55:00,66.7,59.0,30.00,NE,56,0.0,1.0,75,0.00,,,0.00,weatherlink.com 1.10,2013-09-16 03:55:00,